sensor_id;sensor_type;location;lat;lon;timestamp;temperature;humidity
58413;DHT22;44209;52.952;6.790;2023-05-10T00:01:05;13.60;99.90
58413;DHT22;44209;52.952;6.790;2023-05-10T00:03:31;13.50;99.90
58413;DHT22;44209;52.952;6.790;2023-05-10T00:05:56;13.50;99.90
58413;DHT22;44209;52.952;6.790;2023-05-10T00:08:22;13.50;99.90
58413;DHT22;44209;52.952;6.790;2023-05-10T00:10:48;13.50;99.90
58413;DHT22;44209;52.952;6.790;2023-05-10T00:13:14;13.50;99.90
58413;DHT22;44209;52.952;6.790;2023-05-10T00:15:40;13.40;99.90
58413;DHT22;44209;52.952;6.790;2023-05-10T00:18:05;13.40;99.90
58413;DHT22;44209;52.952;6.790;2023-05-10T00:20:31;13.40;99.90
58413;DHT22;44209;52.952;6.790;2023-05-10T00:22:57;13.30;99.90
58413;DHT22;44209;52.952;6.790;2023-05-10T00:25:23;13.30;99.90
58413;DHT22;44209;52.952;6.790;2023-05-10T00:27:51;13.30;99.90
58413;DHT22;44209;52.952;6.790;2023-05-10T00:30:16;13.30;99.90
58413;DHT22;44209;52.952;6.790;2023-05-10T00:32:42;13.30;99.90
58413;DHT22;44209;52.952;6.790;2023-05-10T00:35:09;13.30;99.90
58413;DHT22;44209;52.952;6.790;2023-05-10T00:37:35;13.30;99.90
58413;DHT22;44209;52.952;6.790;2023-05-10T00:40:00;13.30;99.90
58413;DHT22;44209;52.952;6.790;2023-05-10T00:42:26;13.30;99.90
58413;DHT22;44209;52.952;6.790;2023-05-10T00:44:52;13.40;99.90
58413;DHT22;44209;52.952;6.790;2023-05-10T00:47:18;13.30;99.90
58413;DHT22;44209;52.952;6.790;2023-05-10T00:49:44;13.30;99.90
58413;DHT22;44209;52.952;6.790;2023-05-10T00:52:10;13.30;99.90
58413;DHT22;44209;52.952;6.790;2023-05-10T00:54:36;13.30;99.90
58413;DHT22;44209;52.952;6.790;2023-05-10T00:57:02;13.30;99.90
58413;DHT22;44209;52.952;6.790;2023-05-10T00:59:29;13.30;99.90
58413;DHT22;44209;52.952;6.790;2023-05-10T01:01:55;13.30;99.90
58413;DHT22;44209;52.952;6.790;2023-05-10T01:04:20;13.30;99.90
58413;DHT22;44209;52.952;6.790;2023-05-10T01:06:51;13.30;99.90
58413;DHT22;44209;52.952;6.790;2023-05-10T01:09:19;13.40;99.90
58413;DHT22;44209;52.952;6.790;2023-05-10T01:11:45;13.30;99.90
58413;DHT22;44209;52.952;6.790;2023-05-10T01:14:11;13.40;99.90
58413;DHT22;44209;52.952;6.790;2023-05-10T01:16:38;13.40;99.90
58413;DHT22;44209;52.952;6.790;2023-05-10T01:19:23;13.40;99.90
58413;DHT22;44209;52.952;6.790;2023-05-10T01:38:51;13.20;99.90
58413;DHT22;44209;52.952;6.790;2023-05-10T01:41:42;13.20;99.90
58413;DHT22;44209;52.952;6.790;2023-05-10T01:47:01;13.20;99.90
58413;DHT22;44209;52.952;6.790;2023-05-10T01:49:33;13.20;99.90
58413;DHT22;44209;52.952;6.790;2023-05-10T01:52:08;13.20;99.90
58413;DHT22;44209;52.952;6.790;2023-05-10T01:54:35;13.20;99.90
58413;DHT22;44209;52.952;6.790;2023-05-10T01:57:06;13.10;99.90
58413;DHT22;44209;52.952;6.790;2023-05-10T01:59:38;13.10;99.90
58413;DHT22;44209;52.952;6.790;2023-05-10T02:02:07;13.10;99.90
58413;DHT22;44209;52.952;6.790;2023-05-10T02:04:39;13.10;99.90
58413;DHT22;44209;52.952;6.790;2023-05-10T02:07:06;13.10;99.90
58413;DHT22;44209;52.952;6.790;2023-05-10T02:09:33;13.10;99.90
58413;DHT22;44209;52.952;6.790;2023-05-10T02:12:02;13.00;99.90
58413;DHT22;44209;52.952;6.790;2023-05-10T02:14:34;13.00;99.90
58413;DHT22;44209;52.952;6.790;2023-05-10T02:17:02;13.00;99.90
58413;DHT22;44209;52.952;6.790;2023-05-10T02:19:30;13.00;99.90
58413;DHT22;44209;52.952;6.790;2023-05-10T02:21:57;13.00;99.90
58413;DHT22;44209;52.952;6.790;2023-05-10T02:24:24;13.00;99.90
58413;DHT22;44209;52.952;6.790;2023-05-10T02:26:53;13.00;99.90
58413;DHT22;44209;52.952;6.790;2023-05-10T02:29:23;13.00;99.90
58413;DHT22;44209;52.952;6.790;2023-05-10T02:31:51;13.00;99.90
58413;DHT22;44209;52.952;6.790;2023-05-10T02:34:19;13.00;99.90
58413;DHT22;44209;52.952;6.790;2023-05-10T02:36:47;13.00;99.90
58413;DHT22;44209;52.952;6.790;2023-05-10T02:39:14;13.00;99.90
58413;DHT22;44209;52.952;6.790;2023-05-10T02:41:42;13.00;99.90
58413;DHT22;44209;52.952;6.790;2023-05-10T02:44:09;13.00;99.90
58413;DHT22;44209;52.952;6.790;2023-05-10T02:46:36;13.00;99.90
58413;DHT22;44209;52.952;6.790;2023-05-10T02:49:03;13.00;99.90
58413;DHT22;44209;52.952;6.790;2023-05-10T02:51:31;13.00;99.90
58413;DHT22;44209;52.952;6.790;2023-05-10T02:54:01;13.00;99.90
58413;DHT22;44209;52.952;6.790;2023-05-10T02:56:32;13.00;99.90
58413;DHT22;44209;52.952;6.790;2023-05-10T02:58:58;13.00;99.90
58413;DHT22;44209;52.952;6.790;2023-05-10T03:01:24;13.00;99.90
58413;DHT22;44209;52.952;6.790;2023-05-10T03:03:53;13.00;99.90
58413;DHT22;44209;52.952;6.790;2023-05-10T03:06:18;13.00;99.90
58413;DHT22;44209;52.952;6.790;2023-05-10T03:08:45;13.00;99.90
58413;DHT22;44209;52.952;6.790;2023-05-10T03:16:41;13.00;99.90
58413;DHT22;44209;52.952;6.790;2023-05-10T03:19:18;13.00;99.90
58413;DHT22;44209;52.952;6.790;2023-05-10T03:21:50;12.90;99.90
58413;DHT22;44209;52.952;6.790;2023-05-10T03:24:20;12.90;99.90
58413;DHT22;44209;52.952;6.790;2023-05-10T03:26:47;12.90;99.90
58413;DHT22;44209;52.952;6.790;2023-05-10T03:29:14;12.90;99.90
58413;DHT22;44209;52.952;6.790;2023-05-10T03:31:41;12.90;99.90
58413;DHT22;44209;52.952;6.790;2023-05-10T03:34:07;12.90;99.90
58413;DHT22;44209;52.952;6.790;2023-05-10T03:36:33;12.90;99.90
58413;DHT22;44209;52.952;6.790;2023-05-10T03:38:59;12.90;99.90
58413;DHT22;44209;52.952;6.790;2023-05-10T03:41:24;12.90;99.90
58413;DHT22;44209;52.952;6.790;2023-05-10T03:43:51;12.90;99.90
58413;DHT22;44209;52.952;6.790;2023-05-10T03:46:17;13.00;99.90
58413;DHT22;44209;52.952;6.790;2023-05-10T03:48:42;12.90;99.90
58413;DHT22;44209;52.952;6.790;2023-05-10T03:51:08;13.00;99.90
58413;DHT22;44209;52.952;6.790;2023-05-10T03:53:34;13.00;99.90
58413;DHT22;44209;52.952;6.790;2023-05-10T03:56:00;12.90;99.90
58413;DHT22;44209;52.952;6.790;2023-05-10T03:58:25;12.90;99.90
58413;DHT22;44209;52.952;6.790;2023-05-10T04:00:51;12.90;99.90
58413;DHT22;44209;52.952;6.790;2023-05-10T04:03:17;12.90;99.90
58413;DHT22;44209;52.952;6.790;2023-05-10T04:05:43;12.90;99.90
58413;DHT22;44209;52.952;6.790;2023-05-10T04:08:09;12.90;99.90
58413;DHT22;44209;52.952;6.790;2023-05-10T04:10:35;12.90;99.90
58413;DHT22;44209;52.952;6.790;2023-05-10T04:13:00;12.90;99.90
58413;DHT22;44209;52.952;6.790;2023-05-10T04:15:26;12.90;99.90
58413;DHT22;44209;52.952;6.790;2023-05-10T04:17:52;12.90;99.90
58413;DHT22;44209;52.952;6.790;2023-05-10T04:20:19;12.90;99.90
58413;DHT22;44209;52.952;6.790;2023-05-10T04:22:44;12.80;99.90
58413;DHT22;44209;52.952;6.790;2023-05-10T04:25:10;12.80;99.90
58413;DHT22;44209;52.952;6.790;2023-05-10T04:27:36;12.80;99.90
58413;DHT22;44209;52.952;6.790;2023-05-10T04:30:02;12.90;99.90
58413;DHT22;44209;52.952;6.790;2023-05-10T04:32:28;12.80;99.90
58413;DHT22;44209;52.952;6.790;2023-05-10T04:34:54;12.80;99.90
58413;DHT22;44209;52.952;6.790;2023-05-10T04:37:20;12.80;99.90
58413;DHT22;44209;52.952;6.790;2023-05-10T04:39:46;12.90;99.90
58413;DHT22;44209;52.952;6.790;2023-05-10T04:42:12;12.80;99.90
58413;DHT22;44209;52.952;6.790;2023-05-10T04:44:40;12.80;99.90
58413;DHT22;44209;52.952;6.790;2023-05-10T04:47:06;12.80;99.90
58413;DHT22;44209;52.952;6.790;2023-05-10T04:49:32;12.80;99.90
58413;DHT22;44209;52.952;6.790;2023-05-10T04:51:57;12.80;99.90
58413;DHT22;44209;52.952;6.790;2023-05-10T04:54:23;12.80;99.90
58413;DHT22;44209;52.952;6.790;2023-05-10T04:56:49;12.80;99.90
58413;DHT22;44209;52.952;6.790;2023-05-10T04:59:15;12.80;99.90
58413;DHT22;44209;52.952;6.790;2023-05-10T05:01:41;12.80;99.90
58413;DHT22;44209;52.952;6.790;2023-05-10T05:04:06;12.80;99.90
58413;DHT22;44209;52.952;6.790;2023-05-10T05:06:32;12.80;99.90
58413;DHT22;44209;52.952;6.790;2023-05-10T05:08:58;12.80;99.90
58413;DHT22;44209;52.952;6.790;2023-05-10T05:11:24;12.80;99.90
58413;DHT22;44209;52.952;6.790;2023-05-10T05:13:50;12.80;99.90
58413;DHT22;44209;52.952;6.790;2023-05-10T05:16:16;12.80;99.90
58413;DHT22;44209;52.952;6.790;2023-05-10T05:18:42;12.80;99.90
58413;DHT22;44209;52.952;6.790;2023-05-10T05:21:18;12.90;99.90
58413;DHT22;44209;52.952;6.790;2023-05-10T05:23:44;12.80;99.90
58413;DHT22;44209;52.952;6.790;2023-05-10T05:26:10;12.80;99.90
58413;DHT22;44209;52.952;6.790;2023-05-10T05:28:36;12.80;99.90
58413;DHT22;44209;52.952;6.790;2023-05-10T05:31:06;12.80;99.90
58413;DHT22;44209;52.952;6.790;2023-05-10T05:33:35;12.90;99.90
58413;DHT22;44209;52.952;6.790;2023-05-10T05:36:02;12.90;99.90
58413;DHT22;44209;52.952;6.790;2023-05-10T05:38:28;12.90;99.90
58413;DHT22;44209;52.952;6.790;2023-05-10T05:40:54;12.90;99.90
58413;DHT22;44209;52.952;6.790;2023-05-10T05:43:20;12.90;99.90
58413;DHT22;44209;52.952;6.790;2023-05-10T05:45:46;12.90;99.90
58413;DHT22;44209;52.952;6.790;2023-05-10T05:48:11;12.90;99.90
58413;DHT22;44209;52.952;6.790;2023-05-10T05:50:37;12.90;99.90
58413;DHT22;44209;52.952;6.790;2023-05-10T05:53:03;12.80;99.90
58413;DHT22;44209;52.952;6.790;2023-05-10T05:55:29;12.90;99.90
58413;DHT22;44209;52.952;6.790;2023-05-10T05:57:57;12.80;99.90
58413;DHT22;44209;52.952;6.790;2023-05-10T06:00:23;12.80;99.90
58413;DHT22;44209;52.952;6.790;2023-05-10T06:02:49;12.80;99.90
58413;DHT22;44209;52.952;6.790;2023-05-10T06:05:14;12.80;99.90
58413;DHT22;44209;52.952;6.790;2023-05-10T06:07:40;12.90;99.90
58413;DHT22;44209;52.952;6.790;2023-05-10T06:10:08;12.90;99.90
58413;DHT22;44209;52.952;6.790;2023-05-10T06:12:34;12.80;99.90
58413;DHT22;44209;52.952;6.790;2023-05-10T06:15:00;12.80;99.90
58413;DHT22;44209;52.952;6.790;2023-05-10T06:17:29;12.80;99.90
58413;DHT22;44209;52.952;6.790;2023-05-10T06:19:55;12.80;99.90
58413;DHT22;44209;52.952;6.790;2023-05-10T06:22:21;12.80;99.90
58413;DHT22;44209;52.952;6.790;2023-05-10T06:24:49;12.80;99.90
58413;DHT22;44209;52.952;6.790;2023-05-10T06:27:17;12.80;99.90
58413;DHT22;44209;52.952;6.790;2023-05-10T06:29:42;12.80;99.90
58413;DHT22;44209;52.952;6.790;2023-05-10T06:32:08;12.80;99.90
58413;DHT22;44209;52.952;6.790;2023-05-10T06:34:34;12.80;99.90
58413;DHT22;44209;52.952;6.790;2023-05-10T06:37:00;12.80;99.90
58413;DHT22;44209;52.952;6.790;2023-05-10T06:39:25;12.80;99.90
58413;DHT22;44209;52.952;6.790;2023-05-10T06:41:51;12.80;99.90
58413;DHT22;44209;52.952;6.790;2023-05-10T06:44:17;12.80;99.90
58413;DHT22;44209;52.952;6.790;2023-05-10T06:46:43;12.80;99.90
58413;DHT22;44209;52.952;6.790;2023-05-10T06:49:09;12.90;99.90
58413;DHT22;44209;52.952;6.790;2023-05-10T06:51:34;12.90;99.90
58413;DHT22;44209;52.952;6.790;2023-05-10T06:54:00;12.90;99.90
58413;DHT22;44209;52.952;6.790;2023-05-10T06:56:26;12.90;99.90
58413;DHT22;44209;52.952;6.790;2023-05-10T06:58:52;12.90;99.90
58413;DHT22;44209;52.952;6.790;2023-05-10T07:01:18;12.90;99.90
58413;DHT22;44209;52.952;6.790;2023-05-10T07:03:43;12.80;99.90
58413;DHT22;44209;52.952;6.790;2023-05-10T07:06:09;12.90;99.90
58413;DHT22;44209;52.952;6.790;2023-05-10T07:08:35;12.90;99.90
58413;DHT22;44209;52.952;6.790;2023-05-10T07:11:05;12.90;99.90
58413;DHT22;44209;52.952;6.790;2023-05-10T07:13:33;12.90;99.90
58413;DHT22;44209;52.952;6.790;2023-05-10T07:16:00;12.90;99.90
58413;DHT22;44209;52.952;6.790;2023-05-10T07:18:27;12.90;99.90
58413;DHT22;44209;52.952;6.790;2023-05-10T07:20:53;13.00;99.90
58413;DHT22;44209;52.952;6.790;2023-05-10T07:23:19;13.00;99.90
58413;DHT22;44209;52.952;6.790;2023-05-10T07:25:48;13.00;99.90
58413;DHT22;44209;52.952;6.790;2023-05-10T07:28:15;13.00;99.90
58413;DHT22;44209;52.952;6.790;2023-05-10T07:30:42;13.10;99.90
58413;DHT22;44209;52.952;6.790;2023-05-10T07:33:09;13.10;99.90
58413;DHT22;44209;52.952;6.790;2023-05-10T07:35:35;13.20;99.90
58413;DHT22;44209;52.952;6.790;2023-05-10T07:38:01;13.20;99.90
58413;DHT22;44209;52.952;6.790;2023-05-10T07:40:28;13.20;99.90
58413;DHT22;44209;52.952;6.790;2023-05-10T07:42:54;13.30;99.90
58413;DHT22;44209;52.952;6.790;2023-05-10T07:45:20;13.30;99.90
58413;DHT22;44209;52.952;6.790;2023-05-10T07:47:45;13.30;99.90
58413;DHT22;44209;52.952;6.790;2023-05-10T07:50:11;13.30;99.90
58413;DHT22;44209;52.952;6.790;2023-05-10T07:52:37;13.40;99.90
58413;DHT22;44209;52.952;6.790;2023-05-10T07:55:02;13.40;99.90
58413;DHT22;44209;52.952;6.790;2023-05-10T07:57:28;13.40;99.90
58413;DHT22;44209;52.952;6.790;2023-05-10T07:59:54;13.40;99.90
58413;DHT22;44209;52.952;6.790;2023-05-10T08:02:20;13.50;99.90
58413;DHT22;44209;52.952;6.790;2023-05-10T08:04:45;13.50;99.90
58413;DHT22;44209;52.952;6.790;2023-05-10T08:07:11;13.50;99.90
58413;DHT22;44209;52.952;6.790;2023-05-10T08:09:37;13.50;99.90
58413;DHT22;44209;52.952;6.790;2023-05-10T08:12:03;13.50;99.90
58413;DHT22;44209;52.952;6.790;2023-05-10T08:14:29;13.50;99.90
58413;DHT22;44209;52.952;6.790;2023-05-10T08:16:55;13.60;99.90
58413;DHT22;44209;52.952;6.790;2023-05-10T08:19:21;13.60;99.90
58413;DHT22;44209;52.952;6.790;2023-05-10T08:21:48;13.60;99.90
58413;DHT22;44209;52.952;6.790;2023-05-10T08:24:14;13.60;99.90
58413;DHT22;44209;52.952;6.790;2023-05-10T08:26:40;13.60;99.90
58413;DHT22;44209;52.952;6.790;2023-05-10T08:29:06;13.70;99.90
58413;DHT22;44209;52.952;6.790;2023-05-10T08:31:32;13.70;99.90
58413;DHT22;44209;52.952;6.790;2023-05-10T08:33:57;13.70;99.90
58413;DHT22;44209;52.952;6.790;2023-05-10T08:36:23;13.80;99.90
58413;DHT22;44209;52.952;6.790;2023-05-10T08:38:53;13.70;99.90
58413;DHT22;44209;52.952;6.790;2023-05-10T08:41:23;13.70;99.90
58413;DHT22;44209;52.952;6.790;2023-05-10T08:43:53;13.60;99.90
58413;DHT22;44209;52.952;6.790;2023-05-10T08:46:21;13.60;99.90
58413;DHT22;44209;52.952;6.790;2023-05-10T08:48:48;13.50;99.90
58413;DHT22;44209;52.952;6.790;2023-05-10T08:51:18;13.50;99.90
58413;DHT22;44209;52.952;6.790;2023-05-10T08:53:45;13.40;99.90
58413;DHT22;44209;52.952;6.790;2023-05-10T08:56:11;13.40;99.90
58413;DHT22;44209;52.952;6.790;2023-05-10T08:58:37;13.40;99.90
58413;DHT22;44209;52.952;6.790;2023-05-10T09:01:04;13.40;99.90
58413;DHT22;44209;52.952;6.790;2023-05-10T09:03:31;13.40;99.90
58413;DHT22;44209;52.952;6.790;2023-05-10T09:05:57;13.40;99.90
58413;DHT22;44209;52.952;6.790;2023-05-10T09:08:26;13.40;99.90
58413;DHT22;44209;52.952;6.790;2023-05-10T09:10:53;13.40;99.90
58413;DHT22;44209;52.952;6.790;2023-05-10T09:13:19;13.40;99.90
58413;DHT22;44209;52.952;6.790;2023-05-10T09:15:53;13.30;99.90
58413;DHT22;44209;52.952;6.790;2023-05-10T09:18:18;13.30;99.90
58413;DHT22;44209;52.952;6.790;2023-05-10T09:20:44;13.30;99.90
58413;DHT22;44209;52.952;6.790;2023-05-10T09:23:10;13.30;99.90
58413;DHT22;44209;52.952;6.790;2023-05-10T09:25:36;13.30;99.90
58413;DHT22;44209;52.952;6.790;2023-05-10T09:28:06;13.30;99.90
58413;DHT22;44209;52.952;6.790;2023-05-10T09:30:33;13.40;99.90
58413;DHT22;44209;52.952;6.790;2023-05-10T09:32:59;13.50;99.90
58413;DHT22;44209;52.952;6.790;2023-05-10T09:35:27;13.50;99.90
58413;DHT22;44209;52.952;6.790;2023-05-10T09:37:55;13.60;99.90
58413;DHT22;44209;52.952;6.790;2023-05-10T09:40:23;13.60;99.90
58413;DHT22;44209;52.952;6.790;2023-05-10T09:43:03;13.70;99.90
58413;DHT22;44209;52.952;6.790;2023-05-10T09:45:34;13.80;99.90
58413;DHT22;44209;52.952;6.790;2023-05-10T09:48:01;13.80;99.90
58413;DHT22;44209;52.952;6.790;2023-05-10T09:50:28;13.90;99.90
58413;DHT22;44209;52.952;6.790;2023-05-10T09:58:06;14.00;99.90
58413;DHT22;44209;52.952;6.790;2023-05-10T10:00:40;14.10;99.90
58413;DHT22;44209;52.952;6.790;2023-05-10T10:03:11;14.10;99.90
58413;DHT22;44209;52.952;6.790;2023-05-10T10:05:40;14.10;99.90
58413;DHT22;44209;52.952;6.790;2023-05-10T10:08:08;14.20;99.90
58413;DHT22;44209;52.952;6.790;2023-05-10T10:10:34;14.10;99.90
58413;DHT22;44209;52.952;6.790;2023-05-10T10:13:00;14.10;99.90
58413;DHT22;44209;52.952;6.790;2023-05-10T10:15:26;14.10;99.90
58413;DHT22;44209;52.952;6.790;2023-05-10T10:17:53;14.20;99.90
58413;DHT22;44209;52.952;6.790;2023-05-10T10:20:20;14.20;99.90
58413;DHT22;44209;52.952;6.790;2023-05-10T10:22:47;14.20;99.90
58413;DHT22;44209;52.952;6.790;2023-05-10T10:25:17;14.30;99.90
58413;DHT22;44209;52.952;6.790;2023-05-10T10:35:38;15.10;99.90
58413;DHT22;44209;52.952;6.790;2023-05-10T10:38:04;15.10;99.90
58413;DHT22;44209;52.952;6.790;2023-05-10T10:40:32;15.10;99.90
58413;DHT22;44209;52.952;6.790;2023-05-10T10:42:58;15.10;99.90
58413;DHT22;44209;52.952;6.790;2023-05-10T10:46:09;14.90;99.90
58413;DHT22;44209;52.952;6.790;2023-05-10T10:48:33;14.80;99.90
58413;DHT22;44209;52.952;6.790;2023-05-10T10:50:59;14.70;99.90
58413;DHT22;44209;52.952;6.790;2023-05-10T10:53:28;14.60;99.90
58413;DHT22;44209;52.952;6.790;2023-05-10T10:56:13;14.60;99.90
58413;DHT22;44209;52.952;6.790;2023-05-10T10:58:41;14.50;99.90
58413;DHT22;44209;52.952;6.790;2023-05-10T11:01:14;14.50;99.90
58413;DHT22;44209;52.952;6.790;2023-05-10T11:03:56;14.50;99.90
58413;DHT22;44209;52.952;6.790;2023-05-10T11:06:35;14.50;99.90
58413;DHT22;44209;52.952;6.790;2023-05-10T11:09:08;14.50;99.90
58413;DHT22;44209;52.952;6.790;2023-05-10T11:11:35;14.60;99.90
58413;DHT22;44209;52.952;6.790;2023-05-10T11:14:07;14.70;99.90
58413;DHT22;44209;52.952;6.790;2023-05-10T11:16:44;14.80;99.90
58413;DHT22;44209;52.952;6.790;2023-05-10T11:19:14;14.80;99.90
58413;DHT22;44209;52.952;6.790;2023-05-10T11:22:11;15.00;99.90
58413;DHT22;44209;52.952;6.790;2023-05-10T11:24:56;15.10;99.90
58413;DHT22;44209;52.952;6.790;2023-05-10T11:27:23;15.20;99.90
58413;DHT22;44209;52.952;6.790;2023-05-10T11:29:53;15.20;99.90
58413;DHT22;44209;52.952;6.790;2023-05-10T11:32:19;15.30;99.90
58413;DHT22;44209;52.952;6.790;2023-05-10T11:34:47;15.30;99.90
58413;DHT22;44209;52.952;6.790;2023-05-10T11:37:17;15.40;99.90
58413;DHT22;44209;52.952;6.790;2023-05-10T11:39:46;15.30;99.90
58413;DHT22;44209;52.952;6.790;2023-05-10T11:42:15;15.30;99.90
58413;DHT22;44209;52.952;6.790;2023-05-10T11:44:47;15.30;99.90
58413;DHT22;44209;52.952;6.790;2023-05-10T11:47:18;15.30;99.90
58413;DHT22;44209;52.952;6.790;2023-05-10T11:50:03;15.30;99.90
58413;DHT22;44209;52.952;6.790;2023-05-10T11:52:29;15.40;99.90
58413;DHT22;44209;52.952;6.790;2023-05-10T11:54:55;15.40;99.90
58413;DHT22;44209;52.952;6.790;2023-05-10T11:57:26;15.40;99.90
58413;DHT22;44209;52.952;6.790;2023-05-10T11:59:56;15.40;99.90
58413;DHT22;44209;52.952;6.790;2023-05-10T12:02:25;15.50;99.90
58413;DHT22;44209;52.952;6.790;2023-05-10T12:04:55;15.50;99.90
58413;DHT22;44209;52.952;6.790;2023-05-10T12:07:21;15.50;99.90
58413;DHT22;44209;52.952;6.790;2023-05-10T12:10:09;15.40;99.90
58413;DHT22;44209;52.952;6.790;2023-05-10T12:12:43;15.40;99.90
58413;DHT22;44209;52.952;6.790;2023-05-10T12:15:18;15.30;99.90
58413;DHT22;44209;52.952;6.790;2023-05-10T12:17:45;15.20;99.90
58413;DHT22;44209;52.952;6.790;2023-05-10T12:22:43;15.30;99.90
58413;DHT22;44209;52.952;6.790;2023-05-10T12:25:09;15.20;99.90
58413;DHT22;44209;52.952;6.790;2023-05-10T12:27:38;15.30;99.90
58413;DHT22;44209;52.952;6.790;2023-05-10T12:30:09;15.20;99.90
58413;DHT22;44209;52.952;6.790;2023-05-10T12:32:43;15.10;99.90
58413;DHT22;44209;52.952;6.790;2023-05-10T12:35:09;15.10;99.90
58413;DHT22;44209;52.952;6.790;2023-05-10T12:37:36;15.00;99.90
58413;DHT22;44209;52.952;6.790;2023-05-10T12:40:08;15.00;99.90
58413;DHT22;44209;52.952;6.790;2023-05-10T12:42:35;14.90;99.90
58413;DHT22;44209;52.952;6.790;2023-05-10T12:45:02;15.00;99.90
58413;DHT22;44209;52.952;6.790;2023-05-10T12:47:28;15.00;99.90
58413;DHT22;44209;52.952;6.790;2023-05-10T12:49:54;15.10;99.90
58413;DHT22;44209;52.952;6.790;2023-05-10T12:52:20;15.10;99.90
58413;DHT22;44209;52.952;6.790;2023-05-10T12:54:48;15.20;99.90
58413;DHT22;44209;52.952;6.790;2023-05-10T12:57:14;15.20;99.90
58413;DHT22;44209;52.952;6.790;2023-05-10T12:59:40;15.30;99.90
58413;DHT22;44209;52.952;6.790;2023-05-10T13:02:06;15.40;99.90
58413;DHT22;44209;52.952;6.790;2023-05-10T13:04:32;15.50;99.90
58413;DHT22;44209;52.952;6.790;2023-05-10T13:06:58;15.50;99.90
58413;DHT22;44209;52.952;6.790;2023-05-10T13:09:27;15.50;99.90
58413;DHT22;44209;52.952;6.790;2023-05-10T13:11:55;15.60;99.90
58413;DHT22;44209;52.952;6.790;2023-05-10T13:14:20;15.50;99.90
58413;DHT22;44209;52.952;6.790;2023-05-10T13:16:47;15.50;99.90
58413;DHT22;44209;52.952;6.790;2023-05-10T13:19:13;15.60;99.90
58413;DHT22;44209;52.952;6.790;2023-05-10T13:21:39;15.60;99.90
58413;DHT22;44209;52.952;6.790;2023-05-10T13:24:09;15.60;99.90
58413;DHT22;44209;52.952;6.790;2023-05-10T13:26:36;15.60;99.90
58413;DHT22;44209;52.952;6.790;2023-05-10T13:29:02;15.60;99.90
58413;DHT22;44209;52.952;6.790;2023-05-10T13:31:28;15.50;99.90
58413;DHT22;44209;52.952;6.790;2023-05-10T13:33:55;15.40;99.90
58413;DHT22;44209;52.952;6.790;2023-05-10T13:36:23;15.20;99.90
58413;DHT22;44209;52.952;6.790;2023-05-10T13:38:49;15.20;99.90
58413;DHT22;44209;52.952;6.790;2023-05-10T13:41:15;15.10;99.90
58413;DHT22;44209;52.952;6.790;2023-05-10T13:43:40;15.00;99.90
58413;DHT22;44209;52.952;6.790;2023-05-10T13:46:06;15.00;99.90
58413;DHT22;44209;52.952;6.790;2023-05-10T13:48:32;15.00;99.90
58413;DHT22;44209;52.952;6.790;2023-05-10T13:51:15;14.90;99.90
58413;DHT22;44209;52.952;6.790;2023-05-10T13:53:46;14.90;99.90
58413;DHT22;44209;52.952;6.790;2023-05-10T13:56:20;14.90;99.90
58413;DHT22;44209;52.952;6.790;2023-05-10T13:58:56;14.80;99.90
58413;DHT22;44209;52.952;6.790;2023-05-10T14:01:42;14.70;99.90
58413;DHT22;44209;52.952;6.790;2023-05-10T14:04:13;14.70;99.90
58413;DHT22;44209;52.952;6.790;2023-05-10T14:06:48;14.70;99.90
58413;DHT22;44209;52.952;6.790;2023-05-10T14:09:22;14.70;99.90
58413;DHT22;44209;52.952;6.790;2023-05-10T14:11:57;14.70;99.90
58413;DHT22;44209;52.952;6.790;2023-05-10T14:14:23;14.80;99.90
58413;DHT22;44209;52.952;6.790;2023-05-10T14:16:54;14.80;99.90
58413;DHT22;44209;52.952;6.790;2023-05-10T14:19:26;14.90;99.90
58413;DHT22;44209;52.952;6.790;2023-05-10T14:21:52;15.00;99.90
58413;DHT22;44209;52.952;6.790;2023-05-10T14:24:20;15.00;99.90
58413;DHT22;44209;52.952;6.790;2023-05-10T14:26:48;15.10;99.90
58413;DHT22;44209;52.952;6.790;2023-05-10T14:29:14;15.20;99.90
58413;DHT22;44209;52.952;6.790;2023-05-10T14:31:53;15.30;99.90
58413;DHT22;44209;52.952;6.790;2023-05-10T14:34:19;15.30;99.90
58413;DHT22;44209;52.952;6.790;2023-05-10T14:36:48;15.30;99.90
58413;DHT22;44209;52.952;6.790;2023-05-10T14:39:14;15.30;99.90
58413;DHT22;44209;52.952;6.790;2023-05-10T14:41:39;15.40;99.90
58413;DHT22;44209;52.952;6.790;2023-05-10T14:44:12;15.40;99.90
58413;DHT22;44209;52.952;6.790;2023-05-10T14:46:43;15.50;99.90
58413;DHT22;44209;52.952;6.790;2023-05-10T14:49:09;15.50;99.90
58413;DHT22;44209;52.952;6.790;2023-05-10T14:51:38;15.40;99.90
58413;DHT22;44209;52.952;6.790;2023-05-10T14:54:11;15.50;99.90
58413;DHT22;44209;52.952;6.790;2023-05-10T14:56:37;15.50;99.90
58413;DHT22;44209;52.952;6.790;2023-05-10T14:59:03;15.50;99.90
58413;DHT22;44209;52.952;6.790;2023-05-10T15:01:29;15.50;99.90
58413;DHT22;44209;52.952;6.790;2023-05-10T15:03:57;15.50;99.90
58413;DHT22;44209;52.952;6.790;2023-05-10T15:06:31;15.50;99.90
58413;DHT22;44209;52.952;6.790;2023-05-10T15:09:01;15.50;99.90
58413;DHT22;44209;52.952;6.790;2023-05-10T15:11:28;15.50;99.90
58413;DHT22;44209;52.952;6.790;2023-05-10T15:13:55;15.50;99.90
58413;DHT22;44209;52.952;6.790;2023-05-10T15:16:29;15.50;99.90
58413;DHT22;44209;52.952;6.790;2023-05-10T15:18:55;15.50;99.90
58413;DHT22;44209;52.952;6.790;2023-05-10T15:21:24;15.60;99.90
58413;DHT22;44209;52.952;6.790;2023-05-10T15:23:52;15.60;99.90
58413;DHT22;44209;52.952;6.790;2023-05-10T15:26:18;15.60;99.90
58413;DHT22;44209;52.952;6.790;2023-05-10T15:28:44;15.60;99.90
58413;DHT22;44209;52.952;6.790;2023-05-10T15:31:10;15.60;99.90
58413;DHT22;44209;52.952;6.790;2023-05-10T15:33:41;15.50;99.90
58413;DHT22;44209;52.952;6.790;2023-05-10T15:36:07;15.50;99.90
58413;DHT22;44209;52.952;6.790;2023-05-10T15:38:33;15.50;99.90
58413;DHT22;44209;52.952;6.790;2023-05-10T15:41:05;15.50;99.90
58413;DHT22;44209;52.952;6.790;2023-05-10T15:43:31;15.40;99.90
58413;DHT22;44209;52.952;6.790;2023-05-10T15:46:03;15.40;99.90
58413;DHT22;44209;52.952;6.790;2023-05-10T15:48:31;15.40;99.90
58413;DHT22;44209;52.952;6.790;2023-05-10T15:50:57;15.40;99.90
58413;DHT22;44209;52.952;6.790;2023-05-10T15:53:22;15.40;99.90
58413;DHT22;44209;52.952;6.790;2023-05-10T15:55:48;15.40;99.90
58413;DHT22;44209;52.952;6.790;2023-05-10T15:58:14;15.40;99.90
58413;DHT22;44209;52.952;6.790;2023-05-10T16:00:41;15.40;99.90
58413;DHT22;44209;52.952;6.790;2023-05-10T16:03:10;15.30;99.90
58413;DHT22;44209;52.952;6.790;2023-05-10T16:05:36;15.40;99.90
58413;DHT22;44209;52.952;6.790;2023-05-10T16:08:02;15.40;99.90
58413;DHT22;44209;52.952;6.790;2023-05-10T16:10:30;15.50;99.90
58413;DHT22;44209;52.952;6.790;2023-05-10T16:12:57;15.50;99.90
58413;DHT22;44209;52.952;6.790;2023-05-10T16:15:23;15.50;99.90